sensor_id;sensor_type;location;lat;lon;timestamp;pressure;altitude;pressure_sealevel;temperature;humidity
42859;BME280;28505;56.970;40.998;2024-02-04T00:01:35;97165.16;;;-7.69;100.00
42859;BME280;28505;56.970;40.998;2024-02-04T00:07:10;97159.81;;;-7.57;100.00
42859;BME280;28505;56.970;40.998;2024-02-04T00:12:33;97154.88;;;-7.54;100.00
42859;BME280;28505;56.970;40.998;2024-02-04T00:18:07;97143.16;;;-7.51;100.00
42859;BME280;28505;56.970;40.998;2024-02-04T00:23:30;97123.00;;;-7.50;100.00
42859;BME280;28505;56.970;40.998;2024-02-04T00:28:52;97114.59;;;-7.53;100.00
42859;BME280;28505;56.970;40.998;2024-02-04T00:34:14;97095.56;;;-7.48;100.00
42859;BME280;28505;56.970;40.998;2024-02-04T00:39:49;97071.94;;;-7.53;100.00
42859;BME280;28505;56.970;40.998;2024-02-04T00:45:12;97086.97;;;-7.43;100.00
42859;BME280;28505;56.970;40.998;2024-02-04T00:50:34;97078.88;;;-7.42;100.00
42859;BME280;28505;56.970;40.998;2024-02-04T00:56:08;97066.03;;;-7.43;100.00
42859;BME280;28505;56.970;40.998;2024-02-04T01:01:34;97049.81;;;-7.40;100.00
42859;BME280;28505;56.970;40.998;2024-02-04T01:06:56;97041.25;;;-7.36;100.00
42859;BME280;28505;56.970;40.998;2024-02-04T01:12:22;97019.97;;;-7.44;100.00
42859;BME280;28505;56.970;40.998;2024-02-04T01:17:44;96990.31;;;-7.55;100.00
42859;BME280;28505;56.970;40.998;2024-02-04T01:23:22;97004.34;;;-7.34;100.00
42859;BME280;28505;56.970;40.998;2024-02-04T01:28:44;97002.50;;;-7.34;100.00
42859;BME280;28505;56.970;40.998;2024-02-04T01:34:06;96990.69;;;-7.41;100.00
42859;BME280;28505;56.970;40.998;2024-02-04T01:39:29;96992.31;;;-7.35;100.00
42859;BME280;28505;56.970;40.998;2024-02-04T01:44:51;96977.38;;;-7.35;100.00
42859;BME280;28505;56.970;40.998;2024-02-04T01:50:29;96956.69;;;-7.36;100.00
42859;BME280;28505;56.970;40.998;2024-02-04T01:55:51;96959.59;;;-7.33;100.00
42859;BME280;28505;56.970;40.998;2024-02-04T02:01:16;96938.91;;;-7.34;100.00
42859;BME280;28505;56.970;40.998;2024-02-04T02:06:39;96945.78;;;-7.23;100.00
42859;BME280;28505;56.970;40.998;2024-02-04T02:12:09;96934.03;;;-7.20;100.00
42859;BME280;28505;56.970;40.998;2024-02-04T02:17:52;96921.22;;;-7.22;100.00
42859;BME280;28505;56.970;40.998;2024-02-04T02:23:30;96899.16;;;-7.26;100.00
42859;BME280;28505;56.970;40.998;2024-02-04T02:28:54;96895.53;;;-7.25;100.00
42859;BME280;28505;56.970;40.998;2024-02-04T02:34:45;96897.94;;;-7.18;100.00
42859;BME280;28505;56.970;40.998;2024-02-04T02:40:51;96895.59;;;-7.15;100.00
42859;BME280;28505;56.970;40.998;2024-02-04T02:46:11;96873.59;;;-7.19;100.00
42859;BME280;28505;56.970;40.998;2024-02-04T02:51:34;96863.66;;;-7.12;100.00
42859;BME280;28505;56.970;40.998;2024-02-04T02:57:08;96852.13;;;-7.11;100.00
42859;BME280;28505;56.970;40.998;2024-02-04T03:03:00;96843.78;;;-7.08;100.00
42859;BME280;28505;56.970;40.998;2024-02-04T03:08:34;96822.03;;;-7.13;100.00
42859;BME280;28505;56.970;40.998;2024-02-04T03:13:57;96812.88;;;-7.11;100.00
42859;BME280;28505;56.970;40.998;2024-02-04T03:19:19;96818.66;;;-7.03;100.00
42859;BME280;28505;56.970;40.998;2024-02-04T03:24:42;96763.63;;;-7.29;100.00
42859;BME280;28505;56.970;40.998;2024-02-04T03:30:05;96795.34;;;-7.05;100.00
42859;BME280;28505;56.970;40.998;2024-02-04T03:35:40;96789.06;;;-7.09;100.00
42859;BME280;28505;56.970;40.998;2024-02-04T03:41:05;96759.94;;;-7.23;100.00
42859;BME280;28505;56.970;40.998;2024-02-04T03:46:28;96768.91;;;-7.03;100.00
42859;BME280;28505;56.970;40.998;2024-02-04T03:51:51;96744.81;;;-7.16;100.00
42859;BME280;28505;56.970;40.998;2024-02-04T03:57:14;96748.75;;;-7.08;100.00
42859;BME280;28505;56.970;40.998;2024-02-04T04:02:49;96725.94;;;-7.18;100.00
42859;BME280;28505;56.970;40.998;2024-02-04T04:08:12;96745.91;;;-6.96;100.00
42859;BME280;28505;56.970;40.998;2024-02-04T04:13:35;96743.00;;;-6.95;100.00
42859;BME280;28505;56.970;40.998;2024-02-04T04:18:57;96703.47;;;-7.09;100.00
42859;BME280;28505;56.970;40.998;2024-02-04T04:24:23;96701.88;;;-7.04;100.00
42859;BME280;28505;56.970;40.998;2024-02-04T04:29:45;96671.00;;;-7.13;100.00
42859;BME280;28505;56.970;40.998;2024-02-04T04:35:10;96670.22;;;-7.08;100.00
42859;BME280;28505;56.970;40.998;2024-02-04T04:40:33;96651.09;;;-7.14;100.00
42859;BME280;28505;56.970;40.998;2024-02-04T04:46:07;96680.19;;;-6.90;100.00
42859;BME280;28505;56.970;40.998;2024-02-04T04:51:29;96663.69;;;-6.95;100.00
42859;BME280;28505;56.970;40.998;2024-02-04T04:56:51;96653.19;;;-6.95;100.00
42859;BME280;28505;56.970;40.998;2024-02-04T05:02:13;96645.34;;;-6.90;100.00
42859;BME280;28505;56.970;40.998;2024-02-04T05:07:35;96624.66;;;-6.97;100.00
42859;BME280;28505;56.970;40.998;2024-02-04T05:13:34;96600.31;;;-7.02;100.00
42859;BME280;28505;56.970;40.998;2024-02-04T05:18:56;96598.47;;;-6.97;100.00
42859;BME280;28505;56.970;40.998;2024-02-04T05:24:18;96602.38;;;-6.84;100.00
42859;BME280;28505;56.970;40.998;2024-02-04T05:29:40;96601.06;;;-6.81;100.00
42859;BME280;28505;56.970;40.998;2024-02-04T05:35:03;96586.94;;;-6.86;100.00
42859;BME280;28505;56.970;40.998;2024-02-04T05:40:25;96596.09;;;-6.78;100.00
42859;BME280;28505;56.970;40.998;2024-02-04T05:45:48;96584.03;;;-6.74;100.00
42859;BME280;28505;56.970;40.998;2024-02-04T05:51:10;96568.31;;;-6.74;100.00
42859;BME280;28505;56.970;40.998;2024-02-04T05:56:32;96576.44;;;-6.65;100.00
42859;BME280;28505;56.970;40.998;2024-02-04T06:01:55;96556.28;;;-6.70;100.00
42859;BME280;28505;56.970;40.998;2024-02-04T06:07:20;96536.63;;;-6.72;100.00
42859;BME280;28505;56.970;40.998;2024-02-04T06:12:56;96551.00;;;-6.60;100.00
42859;BME280;28505;56.970;40.998;2024-02-04T06:18:20;96540.00;;;-6.56;100.00
42859;BME280;28505;56.970;40.998;2024-02-04T06:23:42;96533.69;;;-6.55;100.00
42859;BME280;28505;56.970;40.998;2024-02-04T06:29:05;96519.03;;;-6.56;100.00
42859;BME280;28505;56.970;40.998;2024-02-04T06:34:27;96506.97;;;-6.57;100.00
42859;BME280;28505;56.970;40.998;2024-02-04T06:39:50;96511.69;;;-6.49;100.00
42859;BME280;28505;56.970;40.998;2024-02-04T06:45:12;96497.03;;;-6.55;100.00
42859;BME280;28505;56.970;40.998;2024-02-04T06:50:34;96499.34;;;-6.49;100.00
42859;BME280;28505;56.970;40.998;2024-02-04T06:56:09;96479.47;;;-6.55;100.00
42859;BME280;28505;56.970;40.998;2024-02-04T07:01:32;96487.56;;;-6.46;100.00
42859;BME280;28505;56.970;40.998;2024-02-04T07:06:54;96493.56;;;-6.41;100.00
42859;BME280;28505;56.970;40.998;2024-02-04T07:12:28;96455.63;;;-6.53;100.00
42859;BME280;28505;56.970;40.998;2024-02-04T07:18:02;96481.72;;;-6.33;100.00
42859;BME280;28505;56.970;40.998;2024-02-04T07:23:26;96449.56;;;-6.49;100.00
42859;BME280;28505;56.970;40.998;2024-02-04T07:28:51;96448.72;;;-6.39;100.00
42859;BME280;28505;56.970;40.998;2024-02-04T07:34:14;96441.94;;;-6.45;100.00
42859;BME280;28505;56.970;40.998;2024-02-04T07:39:36;96448.19;;;-6.36;100.00
42859;BME280;28505;56.970;40.998;2024-02-04T07:44:58;96453.38;;;-6.21;100.00
42859;BME280;28505;56.970;40.998;2024-02-04T07:50:23;96442.13;;;-6.26;100.00
42859;BME280;28505;56.970;40.998;2024-02-04T07:55:58;96453.31;;;-6.16;100.00
42859;BME280;28505;56.970;40.998;2024-02-04T08:01:20;96441.75;;;-6.09;100.00
42859;BME280;28505;56.970;40.998;2024-02-04T08:06:42;96440.72;;;-6.14;100.00
42859;BME280;28505;56.970;40.998;2024-02-04T08:12:05;96452.16;;;-5.99;100.00
42859;BME280;28505;56.970;40.998;2024-02-04T08:17:27;96454.78;;;-5.99;100.00
42859;BME280;28505;56.970;40.998;2024-02-04T08:22:54;96443.22;;;-5.93;100.00
42859;BME280;28505;56.970;40.998;2024-02-04T08:28:17;96450.50;;;-5.90;100.00
42859;BME280;28505;56.970;40.998;2024-02-04T08:33:39;96446.31;;;-5.91;100.00
42859;BME280;28505;56.970;40.998;2024-02-04T08:39:02;96453.09;;;-5.85;100.00
42859;BME280;28505;56.970;40.998;2024-02-04T08:44:27;96448.91;;;-5.86;100.00
42859;BME280;28505;56.970;40.998;2024-02-04T08:50:00;96444.19;;;-5.89;100.00
42859;BME280;28505;56.970;40.998;2024-02-04T08:55:23;96439.16;;;-5.80;100.00
42859;BME280;28505;56.970;40.998;2024-02-04T09:00:45;96442.56;;;-5.80;100.00
42859;BME280;28505;56.970;40.998;2024-02-04T09:06:07;96436.22;;;-5.74;100.00
42859;BME280;28505;56.970;40.998;2024-02-04T09:11:41;96431.53;;;-5.77;100.00
42859;BME280;28505;56.970;40.998;2024-02-04T09:17:31;96413.75;;;-5.85;100.00
42859;BME280;28505;56.970;40.998;2024-02-04T09:22:56;96383.09;;;-5.90;100.00
42859;BME280;28505;56.970;40.998;2024-02-04T09:28:32;96387.34;;;-5.65;100.00
42859;BME280;28505;56.970;40.998;2024-02-04T09:33:55;96395.16;;;-5.59;100.00
42859;BME280;28505;56.970;40.998;2024-02-04T09:39:18;96383.31;;;-5.52;100.00
42859;BME280;28505;56.970;40.998;2024-02-04T09:44:41;96405.19;;;-5.37;100.00
42859;BME280;28505;56.970;40.998;2024-02-04T09:50:06;96386.69;;;-5.51;100.00
42859;BME280;28505;56.970;40.998;2024-02-04T09:55:30;96397.44;;;-5.48;100.00
42859;BME280;28505;56.970;40.998;2024-02-04T10:00:54;96406.03;;;-5.42;100.00
42859;BME280;28505;56.970;40.998;2024-02-04T10:06:16;96377.22;;;-5.47;100.00
42859;BME280;28505;56.970;40.998;2024-02-04T10:11:39;96421.59;;;-5.22;100.00
42859;BME280;28505;56.970;40.998;2024-02-04T10:17:01;96431.19;;;-4.88;100.00
42859;BME280;28505;56.970;40.998;2024-02-04T10:22:26;96431.56;;;-4.71;100.00
42859;BME280;28505;56.970;40.998;2024-02-04T10:27:50;96416.00;;;-5.15;100.00
42859;BME280;28505;56.970;40.998;2024-02-04T10:33:13;96432.53;;;-5.14;100.00
42859;BME280;28505;56.970;40.998;2024-02-04T10:38:35;96440.53;;;-5.01;100.00
42859;BME280;28505;56.970;40.998;2024-02-04T10:43:58;96444.41;;;-4.93;100.00
42859;BME280;28505;56.970;40.998;2024-02-04T10:49:26;96442.03;;;-4.95;100.00
42859;BME280;28505;56.970;40.998;2024-02-04T10:54:49;96433.22;;;-5.04;100.00
42859;BME280;28505;56.970;40.998;2024-02-04T11:00:14;96445.41;;;-4.89;100.00
42859;BME280;28505;56.970;40.998;2024-02-04T11:05:39;96458.16;;;-4.77;100.00
42859;BME280;28505;56.970;40.998;2024-02-04T11:11:04;96438.66;;;-4.95;100.00
42859;BME280;28505;56.970;40.998;2024-02-04T11:17:12;96463.50;;;-4.87;100.00
42859;BME280;28505;56.970;40.998;2024-02-04T11:22:51;96471.63;;;-4.84;100.00
42859;BME280;28505;56.970;40.998;2024-02-04T11:28:20;96441.03;;;-4.99;100.00
42859;BME280;28505;56.970;40.998;2024-02-04T11:33:44;96453.44;;;-5.04;100.00
42859;BME280;28505;56.970;40.998;2024-02-04T11:39:17;96445.75;;;-5.20;100.00
42859;BME280;28505;56.970;40.998;2024-02-04T11:44:39;96461.94;;;-5.12;100.00
42859;BME280;28505;56.970;40.998;2024-02-04T11:50:02;96487.59;;;-5.04;100.00
42859;BME280;28505;56.970;40.998;2024-02-04T11:55:26;96479.81;;;-5.14;100.00
42859;BME280;28505;56.970;40.998;2024-02-04T12:00:51;96498.94;;;-5.09;100.00
42859;BME280;28505;56.970;40.998;2024-02-04T12:06:25;96522.50;;;-5.04;100.00
42859;BME280;28505;56.970;40.998;2024-02-04T12:11:48;96496.19;;;-5.23;100.00
42859;BME280;28505;56.970;40.998;2024-02-04T12:17:11;96521.25;;;-5.06;100.00
42859;BME280;28505;56.970;40.998;2024-02-04T12:22:33;96532.22;;;-5.04;100.00
42859;BME280;28505;56.970;40.998;2024-02-04T12:28:10;96538.03;;;-5.07;100.00
42859;BME280;28505;56.970;40.998;2024-02-04T12:33:32;96543.38;;;-5.18;100.00
42859;BME280;28505;56.970;40.998;2024-02-04T12:38:58;96535.88;;;-5.29;100.00
42859;BME280;28505;56.970;40.998;2024-02-04T12:44:23;96543.69;;;-5.24;100.00
42859;BME280;28505;56.970;40.998;2024-02-04T12:49:45;96564.38;;;-5.18;100.00
42859;BME280;28505;56.970;40.998;2024-02-04T12:55:07;96563.84;;;-5.14;100.00
42859;BME280;28505;56.970;40.998;2024-02-04T13:00:30;96561.84;;;-5.28;100.00
42859;BME280;28505;56.970;40.998;2024-02-04T13:06:05;96566.03;;;-5.27;100.00
42859;BME280;28505;56.970;40.998;2024-02-04T13:17:23;96601.38;;;-5.09;100.00
42859;BME280;28505;56.970;40.998;2024-02-04T13:22:45;96577.66;;;-5.33;100.00
42859;BME280;28505;56.970;40.998;2024-02-04T13:28:07;96615.28;;;-5.13;100.00
42859;BME280;28505;56.970;40.998;2024-02-04T13:33:30;96583.94;;;-5.34;100.00
42859;BME280;28505;56.970;40.998;2024-02-04T13:38:52;96603.34;;;-5.30;100.00
42859;BME280;28505;56.970;40.998;2024-02-04T13:44:15;96603.91;;;-5.33;100.00
42859;BME280;28505;56.970;40.998;2024-02-04T13:49:41;96621.72;;;-5.30;100.00
42859;BME280;28505;56.970;40.998;2024-02-04T13:55:19;96610.72;;;-5.32;100.00
42859;BME280;28505;56.970;40.998;2024-02-04T14:00:53;96642.16;;;-5.27;100.00
42859;BME280;28505;56.970;40.998;2024-02-04T14:06:28;96662.63;;;-5.24;100.00
42859;BME280;28505;56.970;40.998;2024-02-04T14:12:03;96670.72;;;-5.10;100.00
42859;BME280;28505;56.970;40.998;2024-02-04T14:17:25;96678.84;;;-5.11;100.00
42859;BME280;28505;56.970;40.998;2024-02-04T14:22:48;96688.81;;;-5.13;100.00
42859;BME280;28505;56.970;40.998;2024-02-04T14:28:11;96687.81;;;-5.18;100.00
42859;BME280;28505;56.970;40.998;2024-02-04T14:33:33;96678.44;;;-5.29;100.00
42859;BME280;28505;56.970;40.998;2024-02-04T14:38:58;96697.81;;;-5.20;100.00
42859;BME280;28505;56.970;40.998;2024-02-04T14:44:20;96695.44;;;-5.21;100.00
42859;BME280;28505;56.970;40.998;2024-02-04T14:49:55;96695.50;;;-5.26;100.00
42859;BME280;28505;56.970;40.998;2024-02-04T14:55:17;96703.84;;;-5.19;100.00
42859;BME280;28505;56.970;40.998;2024-02-04T15:00:45;96722.50;;;-5.21;100.00
42859;BME280;28505;56.970;40.998;2024-02-04T15:06:07;96720.41;;;-5.24;100.00
42859;BME280;28505;56.970;40.998;2024-02-04T15:11:31;96697.38;;;-5.37;100.00
42859;BME280;28505;56.970;40.998;2024-02-04T15:16:53;96711.03;;;-5.35;100.00
42859;BME280;28505;56.970;40.998;2024-02-04T15:22:20;96691.88;;;-5.41;100.00
42859;BME280;28505;56.970;40.998;2024-02-04T15:27:58;96700.28;;;-5.38;100.00
42859;BME280;28505;56.970;40.998;2024-02-04T15:33:21;96694.75;;;-5.37;100.00
42859;BME280;28505;56.970;40.998;2024-02-04T15:38:48;96696.09;;;-5.39;100.00
42859;BME280;28505;56.970;40.998;2024-02-04T15:44:22;96719.91;;;-5.26;100.00
42859;BME280;28505;56.970;40.998;2024-02-04T15:49:45;96746.38;;;-5.17;100.00
42859;BME280;28505;56.970;40.998;2024-02-04T15:55:08;96714.72;;;-5.36;100.00
42859;BME280;28505;56.970;40.998;2024-02-04T16:00:44;96721.22;;;-5.33;100.00
42859;BME280;28505;56.970;40.998;2024-02-04T16:06:10;96709.97;;;-5.34;100.00
42859;BME280;28505;56.970;40.998;2024-02-04T16:12:02;96735.91;;;-5.22;100.00
42859;BME280;28505;56.970;40.998;2024-02-04T16:17:27;96739.84;;;-5.30;100.00
42859;BME280;28505;56.970;40.998;2024-02-04T16:22:54;96736.19;;;-5.29;100.00
42859;BME280;28505;56.970;40.998;2024-02-04T16:28:29;96740.13;;;-5.26;100.00
42859;BME280;28505;56.970;40.998;2024-02-04T16:33:51;96721.81;;;-5.42;100.00
42859;BME280;28505;56.970;40.998;2024-02-04T16:39:28;96737.28;;;-5.35;100.00
42859;BME280;28505;56.970;40.998;2024-02-04T16:45:03;96770.09;;;-5.32;100.00
42859;BME280;28505;56.970;40.998;2024-02-04T16:50:26;96761.16;;;-5.36;100.00
42859;BME280;28505;56.970;40.998;2024-02-04T16:55:48;96766.94;;;-5.34;100.00
42859;BME280;28505;56.970;40.998;2024-02-04T17:01:11;96782.16;;;-5.36;100.00
42859;BME280;28505;56.970;40.998;2024-02-04T17:06:34;96762.53;;;-5.54;100.00
42859;BME280;28505;56.970;40.998;2024-02-04T17:11:57;96759.63;;;-5.48;100.00
42859;BME280;28505;56.970;40.998;2024-02-04T17:17:21;96781.44;;;-5.52;100.00
42859;BME280;28505;56.970;40.998;2024-02-04T17:22:44;96776.41;;;-5.38;100.00
42859;BME280;28505;56.970;40.998;2024-02-04T17:28:07;96768.56;;;-5.54;100.00
42859;BME280;28505;56.970;40.998;2024-02-04T17:33:31;96745.78;;;-5.58;100.00
42859;BME280;28505;56.970;40.998;2024-02-04T17:38:53;96765.69;;;-5.52;100.00
42859;BME280;28505;56.970;40.998;2024-02-04T17:44:17;96778.81;;;-5.52;100.00
42859;BME280;28505;56.970;40.998;2024-02-04T17:49:41;96764.63;;;-5.56;100.00
42859;BME280;28505;56.970;40.998;2024-02-04T17:55:03;96800.56;;;-5.47;100.00
42859;BME280;28505;56.970;40.998;2024-02-04T18:00:38;96784.31;;;-5.54;100.00
42859;BME280;28505;56.970;40.998;2024-02-04T18:06:03;96771.50;;;-5.66;100.00
42859;BME280;28505;56.970;40.998;2024-02-04T18:11:37;96793.50;;;-5.51;100.00
42859;BME280;28505;56.970;40.998;2024-02-04T18:16:59;96793.50;;;-5.56;100.00
42859;BME280;28505;56.970;40.998;2024-02-04T18:22:28;96805.31;;;-5.49;100.00
42859;BME280;28505;56.970;40.998;2024-02-04T18:27:50;96799.28;;;-5.49;100.00
42859;BME280;28505;56.970;40.998;2024-02-04T18:33:13;96805.59;;;-5.55;100.00
42859;BME280;28505;56.970;40.998;2024-02-04T18:38:36;96811.38;;;-5.58;100.00
42859;BME280;28505;56.970;40.998;2024-02-04T18:43:59;96801.38;;;-5.51;100.00
42859;BME280;28505;56.970;40.998;2024-02-04T18:49:22;96814.75;;;-5.53;100.00
42859;BME280;28505;56.970;40.998;2024-02-04T18:54:58;96824.50;;;-5.58;100.00
42859;BME280;28505;56.970;40.998;2024-02-04T19:00:24;96822.13;;;-5.55;100.00
42859;BME280;28505;56.970;40.998;2024-02-04T19:05:46;96812.94;;;-5.62;100.00
42859;BME280;28505;56.970;40.998;2024-02-04T19:11:20;96798.78;;;-5.61;100.00
42859;BME280;28505;56.970;40.998;2024-02-04T19:16:44;96815.31;;;-5.61;100.00
42859;BME280;28505;56.970;40.998;2024-02-04T19:22:06;96829.72;;;-5.53;100.00
42859;BME280;28505;56.970;40.998;2024-02-04T19:27:57;96827.09;;;-5.53;100.00
42859;BME280;28505;56.970;40.998;2024-02-04T19:33:32;96817.44;;;-5.68;100.00
42859;BME280;28505;56.970;40.998;2024-02-04T19:38:55;96827.88;;;-5.53;100.00
42859;BME280;28505;56.970;40.998;2024-02-04T19:44:18;96844.19;;;-5.56;100.00
42859;BME280;28505;56.970;40.998;2024-02-04T19:49:41;96819.25;;;-5.63;100.00
42859;BME280;28505;56.970;40.998;2024-02-04T19:55:05;96829.75;;;-5.74;100.00
42859;BME280;28505;56.970;40.998;2024-02-04T20:00:30;96835.53;;;-5.61;100.00
42859;BME280;28505;56.970;40.998;2024-02-04T20:05:53;96808.78;;;-5.69;100.00
42859;BME280;28505;56.970;40.998;2024-02-04T20:11:15;96848.91;;;-5.63;100.00
42859;BME280;28505;56.970;40.998;2024-02-04T20:16:38;96839.94;;;-5.47;100.00
42859;BME280;28505;56.970;40.998;2024-02-04T20:22:00;96842.31;;;-5.50;100.00
42859;BME280;28505;56.970;40.998;2024-02-04T20:27:23;96853.38;;;-5.58;100.00
42859;BME280;28505;56.970;40.998;2024-02-04T20:32:46;96848.13;;;-5.79;100.00
42859;BME280;28505;56.970;40.998;2024-02-04T20:38:09;96829.22;;;-5.76;100.00
42859;BME280;28505;56.970;40.998;2024-02-04T20:43:31;96847.59;;;-5.55;100.00
42859;BME280;28505;56.970;40.998;2024-02-04T20:48:53;96847.31;;;-5.54;100.00
42859;BME280;28505;56.970;40.998;2024-02-04T20:54:17;96858.34;;;-5.52;100.00
42859;BME280;28505;56.970;40.998;2024-02-04T20:59:39;96874.34;;;-5.48;100.00
42859;BME280;28505;56.970;40.998;2024-02-04T21:05:01;96879.56;;;-5.43;100.00
42859;BME280;28505;56.970;40.998;2024-02-04T21:10:24;96869.59;;;-5.46;100.00
42859;BME280;28505;56.970;40.998;2024-02-04T21:15:47;96851.53;;;-5.73;100.00
42859;BME280;28505;56.970;40.998;2024-02-04T21:21:09;96866.22;;;-5.62;100.00
42859;BME280;28505;56.970;40.998;2024-02-04T21:26:32;96827.13;;;-5.58;100.00
42859;BME280;28505;56.970;40.998;2024-02-04T21:31:54;96861.75;;;-5.51;100.00
42859;BME280;28505;56.970;40.998;2024-02-04T21:37:18;96858.34;;;-5.52;100.00
42859;BME280;28505;56.970;40.998;2024-02-04T21:42:40;96872.78;;;-5.54;100.00
42859;BME280;28505;56.970;40.998;2024-02-04T21:48:27;96870.16;;;-5.70;100.00
42859;BME280;28505;56.970;40.998;2024-02-04T21:53:49;96867.53;;;-5.49;100.00
42859;BME280;28505;56.970;40.998;2024-02-04T21:59:13;96854.94;;;-5.62;100.00
42859;BME280;28505;56.970;40.998;2024-02-04T22:04:48;96866.97;;;-5.46;100.00
42859;BME280;28505;56.970;40.998;2024-02-04T22:10:10;96875.63;;;-5.41;100.00
42859;BME280;28505;56.970;40.998;2024-02-04T22:15:54;96878.00;;;-5.44;100.00
42859;BME280;28505;56.970;40.998;2024-02-04T22:21:29;96871.69;;;-5.43;100.00
42859;BME280;28505;56.970;40.998;2024-02-04T22:26:52;96840.50;;;-5.70;100.00
42859;BME280;28505;56.970;40.998;2024-02-04T22:32:17;96845.50;;;-5.63;100.00
42859;BME280;28505;56.970;40.998;2024-02-04T22:37:39;96854.69;;;-5.61;100.00
42859;BME280;28505;56.970;40.998;2024-02-04T22:43:14;96840.53;;;-5.80;100.00
42859;BME280;28505;56.970;40.998;2024-02-04T22:48:40;96842.88;;;-5.63;100.00
42859;BME280;28505;56.970;40.998;2024-02-04T22:54:02;96842.38;;;-5.66;100.00
42859;BME280;28505;56.970;40.998;2024-02-04T22:59:40;96840.25;;;-5.58;100.00
42859;BME280;28505;56.970;40.998;2024-02-04T23:05:02;96860.69;;;-5.50;100.00
42859;BME280;28505;56.970;40.998;2024-02-04T23:10:25;96869.06;;;-5.33;100.00
42859;BME280;28505;56.970;40.998;2024-02-04T23:15:48;96871.16;;;-5.35;100.00
42859;BME280;28505;56.970;40.998;2024-02-04T23:21:10;96860.94;;;-5.47;100.00
42859;BME280;28505;56.970;40.998;2024-02-04T23:26:32;96875.88;;;-5.32;100.00
42859;BME280;28505;56.970;40.998;2024-02-04T23:31:54;96861.50;;;-5.70;100.00
42859;BME280;28505;56.970;40.998;2024-02-04T23:37:17;96866.44;;;-5.33;100.00
42859;BME280;28505;56.970;40.998;2024-02-04T23:42:40;96859.13;;;-5.56;100.00
42859;BME280;28505;56.970;40.998;2024-02-04T23:48:05;96846.25;;;-5.43;100.00
42859;BME280;28505;56.970;40.998;2024-02-04T23:53:27;96837.31;;;-5.42;100.00
42859;BME280;28505;56.970;40.998;2024-02-04T23:58:49;96864.13;;;-5.55;100.00
